Time;durP1;ratioP1;P1;durP2;ratioP2;P2;SDS_P1;SDS_P2;PMS_P1;PMS_P2;Temp;Humidity;BMP_temperature;BMP_pressure;BME280_temperature;BME280_humidity;BME280_pressure;Samples;Min_cycle;Max_cycle;Signal;HPM_P1;HPM_P2
2024/04/26 00:00:10;;;;;;;0.50;0.50;;;;;;;3.52;69.34;95806.50;29395;251;63009;-89
2024/04/26 00:00:41;;;;;;;0.60;0.60;;;;;;;3.51;69.16;95810.28;29395;237;63011;-89
2024/04/26 00:01:19;;;;;;;0.60;0.60;;;;;;;3.51;69.06;95804.91;29395;199;63009;-90
2024/04/26 00:01:51;;;;;;;0.60;0.60;;;;;;;3.51;69.28;95804.09;29395;219;63009;-89
2024/04/26 00:02:23;;;;;;;0.50;0.50;;;;;;;3.51;69.19;95804.09;29395;235;63009;-91
2024/04/26 00:02:54;;;;;;;0.60;0.60;;;;;;;3.52;69.39;95805.72;29395;310;63004;-88
2024/04/26 00:03:25;;;;;;;0.60;0.60;;;;;;;3.53;69.23;95810.00;29395;251;63009;-90
2024/04/26 00:03:56;;;;;;;0.60;0.60;;;;;;;3.53;69.18;95808.13;29394;196;64009;-90
2024/04/26 00:04:28;;;;;;;0.60;0.60;;;;;;;3.53;69.38;95812.69;29395;229;63019;-89
2024/04/26 00:04:59;;;;;;;0.60;0.60;;;;;;;3.54;69.45;95808.94;29395;211;63005;-88
2024/04/26 00:05:30;;;;;;;0.60;0.60;;;;;;;3.54;69.17;95803.56;29395;252;63009;-89
2024/04/26 00:06:05;;;;;;;0.60;0.60;;;;;;;3.54;69.27;95806.25;29395;226;63005;-88
2024/04/26 00:06:45;;;;;;;0.60;0.60;;;;;;;3.55;69.20;95805.97;29395;248;63009;-87
2024/04/26 00:07:16;;;;;;;0.60;0.60;;;;;;;3.56;69.11;95806.78;29395;215;63005;-89
2024/04/26 00:07:48;;;;;;;0.60;0.60;;;;;;;3.58;69.38;95804.62;29395;224;63009;-91
2024/04/26 00:08:19;;;;;;;0.60;0.60;;;;;;;3.58;69.38;95802.75;29395;307;63005;-89
2024/04/26 00:08:51;;;;;;;0.60;0.60;;;;;;;3.59;69.16;95795.50;29394;213;64013;-89
2024/04/26 00:09:22;;;;;;;0.60;0.60;;;;;;;3.60;68.90;95799.78;29395;210;63004;-90
2024/04/26 00:09:53;;;;;;;0.50;0.50;;;;;;;3.61;68.92;95804.06;29395;210;63017;-90
2024/04/26 00:10:24;;;;;;;0.50;0.50;;;;;;;3.62;69.00;95800.31;29394;252;64009;-90
2024/04/26 00:10:57;;;;;;;0.60;0.60;;;;;;;3.63;69.10;95800.03;29395;202;63009;-91
2024/04/26 00:11:28;;;;;;;0.60;0.60;;;;;;;3.64;69.28;95798.16;29395;292;63004;-91
2024/04/26 00:12:00;;;;;;;0.60;0.60;;;;;;;3.66;68.98;95796.00;29395;226;63008;-89
2024/04/26 00:12:31;;;;;;;0.60;0.60;;;;;;;3.67;68.87;95797.62;29395;255;63005;-89
2024/04/26 00:13:03;;;;;;;0.60;0.60;;;;;;;3.67;68.85;95793.06;29395;261;63009;-88
2024/04/26 00:13:35;;;;;;;0.60;0.60;;;;;;;3.69;68.97;95800.81;29395;215;63005;-90
2024/04/26 00:14:06;;;;;;;0.60;0.60;;;;;;;3.69;68.92;95800.81;29395;213;63009;-89
2024/04/26 00:14:38;;;;;;;0.60;0.60;;;;;;;3.69;68.62;95792.78;29395;229;63005;-91
2024/04/26 00:15:09;;;;;;;0.60;0.60;;;;;;;3.67;68.85;95798.41;29394;202;64013;-90
2024/04/26 00:15:41;;;;;;;0.60;0.60;;;;;;;3.68;68.82;95800.03;29395;240;63005;-89
2024/04/26 00:16:12;;;;;;;0.60;0.60;;;;;;;3.68;68.79;95799.22;29395;221;63009;-90
2024/04/26 00:16:43;;;;;;;0.60;0.60;;;;;;;3.68;68.83;95799.22;29395;202;63004;-89
2024/04/26 00:17:14;;;;;;;0.60;0.60;;;;;;;3.69;68.85;95803.50;29395;301;63009;-91
2024/04/26 00:17:46;;;;;;;0.60;0.60;;;;;;;3.68;68.96;95794.66;29395;210;63004;-90
2024/04/26 00:18:20;;;;;;;0.60;0.60;;;;;;;3.69;68.91;95800.81;29395;328;63009;-89
2024/04/26 00:18:51;;;;;;;0.60;0.60;;;;;;;3.69;68.81;95806.19;29394;267;64009;-91
2024/04/26 00:19:22;;;;;;;0.60;0.60;;;;;;;3.69;69.00;95795.47;29395;224;63008;-90
2024/04/26 00:19:54;;;;;;;0.60;0.60;;;;;;;3.69;68.92;95796.25;29395;230;63004;-89
2024/04/26 00:20:25;;;;;;;0.60;0.60;;;;;;;3.69;68.78;95795.47;29394;303;64014;-90
2024/04/26 00:20:58;;;;;;;0.60;0.60;;;;;;;3.68;69.10;95796.53;29395;236;63008;-89
2024/04/26 00:21:30;;;;;;;0.60;0.60;;;;;;;3.69;68.74;95795.47;29395;232;63009;-90
2024/04/26 00:22:01;;;;;;;0.60;0.60;;;;;;;3.69;68.86;95795.47;29395;213;63005;-89
2024/04/26 00:22:32;;;;;;;0.70;0.70;;;;;;;3.69;68.91;95800.81;29394;262;64013;-90
2024/04/26 00:23:04;;;;;;;0.80;0.80;;;;;;;3.69;68.66;95792.78;29395;202;63005;-90
2024/04/26 00:23:38;;;;;;;0.60;0.60;;;;;;;3.69;68.53;95785.53;29395;220;63009;-89
2024/04/26 00:24:10;;;;;;;0.60;0.60;;;;;;;3.70;68.60;95794.37;29395;276;63005;-88
2024/04/26 00:24:42;;;;;;;0.60;0.60;;;;;;;3.70;68.87;95797.06;29394;245;64013;-89
2024/04/26 00:25:16;;;;;;;0.60;0.60;;;;;;;3.71;68.99;95793.31;29395;206;63004;-91
2024/04/26 00:25:47;;;;;;;0.60;0.60;;;;;;;3.72;69.10;95800.28;29394;305;64013;-90
2024/04/26 00:26:18;;;;;;;0.60;0.60;;;;;;;3.70;69.01;95792.50;29395;306;63004;-91
2024/04/26 00:26:51;;;;;;;0.60;0.60;;;;;;;3.72;68.80;95789.53;29395;313;63008;-89
2024/04/26 00:27:22;;;;;;;0.60;0.60;;;;;;;3.73;69.17;95795.72;29395;196;63004;-89
2024/04/26 00:27:53;;;;;;;0.60;0.60;;;;;;;3.73;69.49;95801.06;29395;299;63009;-89
2024/04/26 00:28:24;;;;;;;0.60;0.60;;;;;;;3.73;69.80;95791.16;29395;235;63005;-88
2024/04/26 00:28:56;;;;;;;0.60;0.60;;;;;;;3.74;69.71;95790.06;29395;281;63009;-89
2024/04/26 00:29:28;;;;;;;0.60;0.60;;;;;;;3.75;69.42;95789.00;29394;254;64009;-89
2024/04/26 00:29:59;;;;;;;0.60;0.60;;;;;;;3.77;69.29;95797.56;29395;234;63009;-89
2024/04/26 00:30:31;;;;;;;0.60;0.60;;;;;;;3.78;68.73;95787.63;29395;203;63005;-90
2024/04/26 00:31:03;;;;;;;0.60;0.60;;;;;;;3.77;68.75;95781.47;29395;197;63019;-90
2024/04/26 00:31:35;;;;;;;0.60;0.60;;;;;;;3.77;68.98;95781.47;29395;303;63005;-89
2024/04/26 00:32:06;;;;;;;0.60;0.60;;;;;;;3.79;68.61;95786.56;29395;218;63009;-90
2024/04/26 00:32:38;;;;;;;0.55;0.55;;;;;;;3.81;68.58;95784.41;29395;257;63004;-89
2024/04/26 00:33:09;;;;;;;0.60;0.60;;;;;;;3.80;68.57;95780.94;29395;203;63009;-89
2024/04/26 00:33:41;;;;;;;0.60;0.60;;;;;;;3.79;68.48;95787.38;29394;228;64009;-89
2024/04/26 00:34:13;;;;;;;0.90;0.90;;;;;;;3.80;68.23;95780.13;29395;246;63009;-90
2024/04/26 00:34:47;;;;;;;0.60;0.60;;;;;;;3.79;68.44;95789.25;29394;235;64008;-88
2024/04/26 00:35:18;;;;;;;0.60;0.60;;;;;;;3.78;68.16;95787.63;29395;229;63009;-89
2024/04/26 00:35:50;;;;;;;0.60;0.60;;;;;;;3.77;68.46;95786.84;29395;287;63005;-90
2024/04/26 00:36:21;;;;;;;0.60;0.60;;;;;;;3.76;68.26;95782.56;29395;276;63009;-89
2024/04/26 00:36:52;;;;;;;0.60;0.60;;;;;;;3.75;68.32;95780.94;29395;270;63005;-88
2024/04/26 00:37:23;;;;;;;0.60;0.60;;;;;;;3.76;68.22;95776.38;29395;250;63009;-89
2024/04/26 00:37:55;;;;;;;0.60;0.60;;;;;;;3.75;68.56;95791.69;29395;220;63005;-89
2024/04/26 00:38:27;;;;;;;0.60;0.60;;;;;;;3.76;68.20;95789.78;29395;228;63009;-89
2024/04/26 00:38:58;;;;;;;0.60;0.60;;;;;;;3.76;68.15;95779.88;29395;247;63005;-89
2024/04/26 00:39:29;;;;;;;0.60;0.60;;;;;;;3.77;67.97;95775.31;29395;219;63009;-90
2024/04/26 00:40:01;;;;;;;0.60;0.60;;;;;;;3.77;68.16;95776.09;29394;230;64009;-89
2024/04/26 00:40:33;;;;;;;0.60;0.60;;;;;;;3.78;68.21;95784.97;29394;242;64013;-89
2024/04/26 00:41:05;;;;;;;0.60;0.60;;;;;;;3.80;67.44;95783.59;29395;257;63004;-89
2024/04/26 00:41:37;;;;;;;0.60;0.60;;;;;;;3.81;67.47;95782.50;29395;208;63009;-89
2024/04/26 00:42:08;;;;;;;0.60;0.60;;;;;;;3.80;67.49;95778.25;29395;215;63004;-89
2024/04/26 00:42:40;;;;;;;0.60;0.60;;;;;;;3.80;67.70;95780.13;29395;237;63008;-90
2024/04/26 00:43:11;;;;;;;0.60;0.60;;;;;;;3.79;67.53;95778.50;29395;251;63005;-89
2024/04/26 00:43:42;;;;;;;0.60;0.60;;;;;;;3.80;67.31;95786.28;29395;232;63009;-88
2024/04/26 00:44:16;;;;;;;0.70;0.70;;;;;;;3.80;67.64;95786.28;29395;285;63005;-89
2024/04/26 00:44:47;;;;;;;0.60;0.60;;;;;;;3.80;67.75;95788.97;29395;230;63021;-90
2024/04/26 00:45:19;;;;;;;0.60;0.60;;;;;;;3.81;67.15;95777.13;29395;206;63005;-88
2024/04/26 00:45:51;;;;;;;0.50;0.50;;;;;;;3.82;67.31;95784.09;29394;204;64013;-89
2024/04/26 00:46:23;;;;;;;0.60;0.60;;;;;;;3.82;67.29;95788.66;29395;198;63005;-88
2024/04/26 00:46:55;;;;;;;0.60;0.60;;;;;;;3.82;67.51;95784.09;29395;234;63024;-88
2024/04/26 00:47:27;;;;;;;0.60;0.60;;;;;;;3.81;67.38;95782.50;29395;238;63004;-91
2024/04/26 00:47:59;;;;;;;0.60;0.60;;;;;;;3.77;67.36;95781.47;29395;341;63009;-88
2024/04/26 00:48:34;;;;;;;0.60;0.60;;;;;;;3.76;67.68;95779.88;29395;209;63004;-88
2024/04/26 00:49:11;;;;;;;0.60;0.60;;;;;;;3.75;67.73;95789.00;29395;221;63009;-89
2024/04/26 00:49:47;;;;;;;0.60;0.60;;;;;;;3.74;67.60;95778.53;29395;205;63004;-88
2024/04/26 00:50:18;;;;;;;0.60;0.60;;;;;;;3.71;68.13;95779.88;29395;220;63009;-91
2024/04/26 00:50:53;;;;;;;0.57;0.57;;;;;;;3.70;68.36;95775.59;29395;220;63005;-89
2024/04/26 00:51:29;;;;;;;0.60;0.60;;;;;;;3.70;68.53;95780.97;29394;224;64014;-90
2024/04/26 00:52:02;;;;;;;0.55;0.55;;;;;;;3.70;68.38;95794.37;29395;274;63005;-88
2024/04/26 00:52:39;;;;;;;0.60;0.60;;;;;;;3.68;68.76;95789.28;29394;214;64013;-87
2024/04/26 00:53:15;;;;;;;0.60;0.60;;;;;;;3.68;68.87;95791.16;29395;203;63005;-89
2024/04/26 00:53:50;;;;;;;0.60;0.60;;;;;;;3.68;68.43;95783.12;29395;225;63009;-89
2024/04/26 00:54:26;;;;;;;0.50;0.50;;;;;;;3.71;68.49;95782.56;29395;207;63004;-87
2024/04/26 00:54:59;;;;;;;0.60;0.60;;;;;;;3.70;68.50;95787.13;29395;210;63009;-90
2024/04/26 00:55:35;;;;;;;0.60;0.60;;;;;;;3.72;68.66;95778.81;29395;247;63004;-88
2024/04/26 00:56:07;;;;;;;0.62;0.62;;;;;;;3.69;68.58;95787.41;29395;204;63009;-87
2024/04/26 00:56:40;;;;;;;0.60;0.60;;;;;;;3.68;69.06;95777.75;29395;211;63004;-88
2024/04/26 00:57:11;;;;;;;0.60;0.60;;;;;;;3.67;68.77;95781.50;29395;241;63008;-88
2024/04/26 00:57:43;;;;;;;0.60;0.60;;;;;;;3.66;69.02;95775.34;29394;209;64008;-88
2024/04/26 00:58:17;;;;;;;0.60;0.60;;;;;;;3.65;68.68;95772.94;29395;231;63009;-87
2024/04/26 00:58:50;;;;;;;0.60;0.60;;;;;;;3.69;68.78;95774.00;29395;359;63005;-87
2024/04/26 00:59:21;;;;;;;0.60;0.60;;;;;;;3.70;68.40;95765.66;29395;209;63009;-88
2024/04/26 00:59:54;;;;;;;0.55;0.55;;;;;;;3.72;68.11;95756.56;29395;220;63005;-87
2024/04/26 01:00:25;;;;;;;0.60;0.60;;;;;;;3.73;67.99;95764.31;29395;209;63009;-87
2024/04/26 01:00:57;;;;;;;0.60;0.60;;;;;;;3.73;67.99;95758.97;29395;239;63010;-89
2024/04/26 01:01:29;;;;;;;0.60;0.60;;;;;;;3.72;67.90;95757.34;29395;218;63009;-86
2024/04/26 01:02:01;;;;;;;0.60;0.60;;;;;;;3.69;68.12;95752.53;29395;220;63004;-88
2024/04/26 01:02:32;;;;;;;0.60;0.60;;;;;;;3.67;67.88;95758.19;29394;231;64013;-87
2024/04/26 01:03:05;;;;;;;0.60;0.60;;;;;;;3.65;67.99;95748.81;29395;293;63004;-89
2024/04/26 01:03:36;;;;;;;0.60;0.60;;;;;;;3.65;67.86;95746.13;29395;225;63009;-87
2024/04/26 01:04:08;;;;;;;0.60;0.60;;;;;;;3.62;67.82;95760.06;29395;220;63004;-88
2024/04/26 01:04:42;;;;;;;0.60;0.60;;;;;;;3.61;67.86;95750.44;29395;299;63009;-86
2024/04/26 01:05:14;;;;;;;0.60;0.60;;;;;;;3.60;67.80;95743.47;29395;203;63005;-87
2024/04/26 01:05:46;;;;;;;0.60;0.60;;;;;;;3.59;67.49;95752.59;29394;197;64014;-88
2024/04/26 01:06:18;;;;;;;0.82;0.82;;;;;;;3.55;67.68;95746.16;29395;219;63005;-89
2024/04/26 01:06:49;;;;;;;0.60;0.60;;;;;;;3.54;67.81;95757.97;29395;349;63009;-87
2024/04/26 01:07:20;;;;;;;0.60;0.60;;;;;;;3.50;67.85;95755.03;29395;290;63005;-89
2024/04/26 01:07:53;;;;;;;0.60;0.60;;;;;;;3.48;67.93;95756.37;29395;196;63009;-88
2024/04/26 01:08:24;;;;;;;0.60;0.60;;;;;;;3.48;68.46;95759.06;29395;249;63007;-88
2024/04/26 01:08:55;;;;;;;0.60;0.60;;;;;;;3.47;68.23;95754.78;29395;213;63009;-89
2024/04/26 01:09:27;;;;;;;0.60;0.60;;;;;;;3.45;68.18;95759.62;29395;242;63004;-87
2024/04/26 01:09:58;;;;;;;0.65;0.65;;;;;;;3.44;68.31;95755.34;29394;208;64013;-88
2024/04/26 01:10:30;;;;;;;0.60;0.60;;;;;;;3.44;68.09;95750.00;29394;208;64009;-86
2024/04/26 01:11:02;;;;;;;0.60;0.60;;;;;;;3.43;68.14;95751.06;29395;377;63009;-88
2024/04/26 01:11:33;;;;;;;0.60;0.60;;;;;;;3.40;68.28;95755.09;29395;233;63004;-89
2024/04/26 01:12:05;;;;;;;0.60;0.60;;;;;;;3.39;68.38;95758.84;29395;327;63026;-87
2024/04/26 01:12:36;;;;;;;0.60;0.60;;;;;;;3.38;68.46;95762.63;29395;200;63005;-88
2024/04/26 01:13:07;;;;;;;0.60;0.60;;;;;;;3.36;68.20;95764.75;29395;213;63009;-89
2024/04/26 01:13:39;;;;;;;0.60;0.60;;;;;;;3.33;68.50;95758.06;29395;224;63005;-88
2024/04/26 01:14:10;;;;;;;0.60;0.60;;;;;;;3.31;68.52;95752.19;29395;224;63009;-88
2024/04/26 01:14:41;;;;;;;0.60;0.60;;;;;;;3.31;68.91;95759.41;29395;225;63005;-88
2024/04/26 01:15:13;;;;;;;0.60;0.60;;;;;;;3.30;68.68;95755.94;29395;232;63009;-88
2024/04/26 01:15:44;;;;;;;0.60;0.60;;;;;;;3.31;68.78;95757.53;29394;203;64009;-88
2024/04/26 01:16:16;;;;;;;0.60;0.60;;;;;;;3.30;68.54;95755.94;29395;314;63009;-87
2024/04/26 01:16:47;;;;;;;0.60;0.60;;;;;;;3.30;68.85;95755.94;29395;228;63004;-89
2024/04/26 01:17:18;;;;;;;0.60;0.60;;;;;;;3.31;68.47;95759.41;29395;302;63009;-87
2024/04/26 01:17:49;;;;;;;0.60;0.60;;;;;;;3.32;68.49;95755.66;29395;377;63004;-87
2024/04/26 01:18:20;;;;;;;0.60;0.60;;;;;;;3.32;68.54;95753.78;29395;365;63009;-88
2024/04/26 01:18:52;;;;;;;0.60;0.60;;;;;;;3.32;68.49;95751.09;29395;202;63004;-88
2024/04/26 01:19:23;;;;;;;0.60;0.60;;;;;;;3.32;68.19;95753.78;29395;292;63008;-86
2024/04/26 01:19:54;;;;;;;0.57;0.57;;;;;;;3.32;68.47;95753.78;29395;220;63005;-87
2024/04/26 01:20:26;;;;;;;0.60;0.60;;;;;;;3.32;68.27;95753.78;29395;199;63009;-88
2024/04/26 01:20:58;;;;;;;0.60;0.60;;;;;;;3.32;68.10;95752.97;29394;227;64009;-87
2024/04/26 01:21:31;;;;;;;0.60;0.60;;;;;;;3.31;68.11;95751.38;29395;224;63009;-87
2024/04/26 01:22:18;;;;;;;0.60;0.60;;;;;;;3.31;68.36;95762.09;29395;244;63016;-88
2024/04/26 01:22:51;;;;;;;0.60;0.60;;;;;;;3.31;68.19;95756.72;29395;206;63017;-87
2024/04/26 01:23:23;;;;;;;0.60;0.60;;;;;;;3.31;68.26;95754.84;29395;283;63005;-87
2024/04/26 01:23:54;;;;;;;0.60;0.60;;;;;;;3.33;68.09;95754.59;29395;255;63009;-87
2024/04/26 01:24:25;;;;;;;0.60;0.60;;;;;;;3.34;68.13;95754.31;29395;204;63004;-87
2024/04/26 01:24:57;;;;;;;0.60;0.60;;;;;;;3.34;67.97;95751.62;29395;208;63025;-87
2024/04/26 01:25:28;;;;;;;0.60;0.60;;;;;;;3.33;68.08;95750.03;29394;202;64009;-88
2024/04/26 01:26:01;;;;;;;0.60;0.60;;;;;;;3.34;68.02;95751.62;29394;225;64013;-88
2024/04/26 01:26:32;;;;;;;0.60;0.60;;;;;;;3.33;68.27;95751.91;29394;188;64008;-89
2024/04/26 01:27:03;;;;;;;0.60;0.60;;;;;;;3.33;68.17;95752.72;29395;198;63020;-88
2024/04/26 01:27:35;;;;;;;0.60;0.60;;;;;;;3.32;68.50;95759.16;29395;239;63005;-89
2024/04/26 01:28:06;;;;;;;0.60;0.60;;;;;;;3.32;68.09;95748.41;29395;211;63009;-86
2024/04/26 01:28:37;;;;;;;0.60;0.60;;;;;;;3.31;68.18;95752.19;29395;205;63005;-88
2024/04/26 01:29:11;;;;;;;0.60;0.60;;;;;;;3.31;68.09;95754.84;29395;205;63009;-88
2024/04/26 01:29:43;;;;;;;0.70;0.70;;;;;;;3.31;68.28;95757.53;29395;368;63005;-89
2024/04/26 01:30:18;;;;;;;0.60;0.60;;;;;;;3.29;68.15;95757.00;29395;238;63009;-88
2024/04/26 01:30:50;;;;;;;0.60;0.60;;;;;;;3.29;68.31;95759.69;29395;352;63005;-89
2024/04/26 01:31:21;;;;;;;0.60;0.60;;;;;;;3.28;68.30;95758.09;29395;233;63009;-89
2024/04/26 01:31:52;;;;;;;0.60;0.60;;;;;;;3.29;68.39;95753.53;29394;299;64009;-89
2024/04/26 01:32:23;;;;;;;0.60;0.60;;;;;;;3.29;68.35;95759.69;29395;202;63009;-86
2024/04/26 01:32:56;;;;;;;0.60;0.60;;;;;;;3.29;68.57;95754.31;29395;198;63004;-88
2024/04/26 01:33:27;;;;;;;0.60;0.60;;;;;;;3.29;68.39;95754.31;29395;202;63009;-87
2024/04/26 01:33:59;;;;;;;0.60;0.60;;;;;;;3.31;68.54;95751.38;29395;273;63004;-87
2024/04/26 01:34:30;;;;;;;0.60;0.60;;;;;;;3.30;68.23;95761.28;29395;246;63024;-87
2024/04/26 01:35:02;;;;;;;0.60;0.60;;;;;;;3.30;68.33;95755.94;29395;327;63005;-88
2024/04/26 01:35:33;;;;;;;0.60;0.60;;;;;;;3.32;68.28;95758.34;29395;202;63009;-88
2024/04/26 01:36:07;;;;;;;0.68;0.68;;;;;;;3.37;68.04;95750.28;29395;208;63005;-89
2024/04/26 01:36:38;;;;;;;0.60;0.60;;;;;;;3.39;67.81;95752.69;29395;223;63009;-88
2024/04/26 01:37:09;;;;;;;0.60;0.60;;;;;;;3.41;68.07;95755.91;29394;255;64009;-87
2024/04/26 01:37:41;;;;;;;0.70;0.70;;;;;;;3.40;67.69;95759.66;29395;262;63009;-87
2024/04/26 01:38:12;;;;;;;0.60;0.60;;;;;;;3.39;67.57;95752.69;29395;220;63005;-88
2024/04/26 01:38:46;;;;;;;0.60;0.60;;;;;;;3.41;67.60;95758.59;29395;202;63023;-89
2024/04/26 01:39:17;;;;;;;0.60;0.60;;;;;;;3.39;67.90;95755.37;29395;216;63004;-88
2024/04/26 01:39:48;;;;;;;0.60;0.60;;;;;;;3.37;67.78;95756.44;29395;204;63009;-88
2024/04/26 01:40:20;;;;;;;0.60;0.60;;;;;;;3.36;68.12;95754.03;29395;205;63009;-89
2024/04/26 01:40:51;;;;;;;0.60;0.60;;;;;;;3.37;67.86;95761.81;29394;223;64013;-88
2024/04/26 01:41:22;;;;;;;0.60;0.60;;;;;;;3.36;68.18;95754.84;29395;217;63004;-89
2024/04/26 01:41:53;;;;;;;0.60;0.60;;;;;;;3.36;68.06;95754.84;29394;209;64013;-87
2024/04/26 01:42:29;;;;;;;0.60;0.60;;;;;;;3.35;68.26;95753.22;29394;425;64009;-89
2024/04/26 01:43:01;;;;;;;0.85;0.85;;;;;;;3.35;67.96;95758.59;29395;224;63028;-87
2024/04/26 01:43:32;;;;;;;0.60;0.60;;;;;;;3.39;68.19;95758.06;29395;213;63005;-88
2024/04/26 01:44:04;;;;;;;1.83;1.73;;;;;;;3.39;67.92;95753.50;29395;220;63009;-88
2024/04/26 01:44:36;;;;;;;0.60;0.60;;;;;;;3.36;67.92;95754.84;29395;197;63005;-88
2024/04/26 01:45:07;;;;;;;0.60;0.60;;;;;;;3.34;68.48;95754.31;29394;198;64013;-88
2024/04/26 01:45:38;;;;;;;0.60;0.60;;;;;;;3.30;68.49;95755.94;29395;202;63005;-89
2024/04/26 01:46:10;;;;;;;0.50;0.50;;;;;;;3.29;68.34;95758.88;29395;208;63009;-87
2024/04/26 01:46:41;;;;;;;0.60;0.60;;;;;;;3.29;68.79;95757.00;29395;372;63004;-88
2024/04/26 01:47:15;;;;;;;0.60;0.60;;;;;;;3.30;68.87;95761.28;29394;220;64013;-89
2024/04/26 01:47:46;;;;;;;0.60;0.60;;;;;;;3.32;69.05;95763.69;29395;211;63004;-88
2024/04/26 01:48:18;;;;;;;0.60;0.60;;;;;;;3.32;68.71;95759.16;29394;222;64013;-88
2024/04/26 01:48:49;;;;;;;0.60;0.60;;;;;;;3.32;68.64;95769.88;29395;227;63004;-89
2024/04/26 01:49:23;;;;;;;0.60;0.60;;;;;;;3.30;68.72;95777.38;29395;219;63008;-88
2024/04/26 01:49:55;;;;;;;0.60;0.60;;;;;;;3.29;68.88;95775.78;29395;256;63005;-87
2024/04/26 01:50:27;;;;;;;0.60;0.60;;;;;;;3.28;69.12;95776.03;29394;202;64014;-87
2024/04/26 01:50:58;;;;;;;0.60;0.60;;;;;;;3.27;69.15;95782.47;29395;202;63005;-89
2024/04/26 01:51:30;;;;;;;0.60;0.60;;;;;;;3.26;69.09;95776.31;29395;238;63009;-88
2024/04/26 01:52:01;;;;;;;0.60;0.60;;;;;;;3.27;69.47;95785.97;29395;238;63005;-89
2024/04/26 01:52:32;;;;;;;0.60;0.60;;;;;;;3.26;69.28;95776.31;29395;206;63009;-87
2024/04/26 01:53:04;;;;;;;0.60;0.60;;;;;;;3.27;69.34;95785.97;29395;342;63005;-89
2024/04/26 01:53:35;;;;;;;0.60;0.60;;;;;;;3.26;69.29;95781.69;29395;213;63009;-90
2024/04/26 01:54:07;;;;;;;0.60;0.60;;;;;;;3.26;69.68;95776.31;29395;199;63004;-90
2024/04/26 01:54:38;;;;;;;0.60;0.60;;;;;;;3.25;69.69;95788.13;29395;198;63009;-89
2024/04/26 01:55:11;;;;;;;0.60;0.60;;;;;;;3.25;69.84;95785.44;29395;230;63004;-88
2024/04/26 01:55:46;;;;;;;0.60;0.60;;;;;;;3.26;69.98;95787.03;29394;313;64013;-89
2024/04/26 01:56:17;;;;;;;0.68;0.68;;;;;;;3.28;69.85;95774.16;29395;231;63011;-87
2024/04/26 01:56:52;;;;;;;0.60;0.60;;;;;;;3.30;69.87;95769.34;29395;245;63008;-89
2024/04/26 01:57:23;;;;;;;0.52;0.52;;;;;;;3.31;69.83;95778.97;29394;213;64009;-89
2024/04/26 01:57:57;;;;;;;0.60;0.60;;;;;;;3.33;70.11;95776.03;29395;202;63009;-90
2024/04/26 01:58:31;;;;;;;0.60;0.60;;;;;;;3.35;70.33;95784.59;29395;223;63005;-88
2024/04/26 01:59:03;;;;;;;0.60;0.60;;;;;;;3.34;70.13;95778.44;29394;278;64012;-89
2024/04/26 01:59:35;;;;;;;2.87;2.72;;;;;;;3.32;70.53;95783.28;29395;219;63005;-88
2024/04/26 02:00:08;;;;;;;0.60;0.60;;;;;;;3.29;70.93;95786.50;29395;196;63009;-88
2024/04/26 02:00:39;;;;;;;0.60;0.60;;;;;;;3.29;70.84;95786.50;29395;197;63015;-89
2024/04/26 02:01:12;;;;;;;0.60;0.60;;;;;;;3.27;70.85;95785.97;29395;253;63009;-88
2024/04/26 02:01:43;;;;;;;0.60;0.60;;;;;;;3.25;71.35;95790.78;29395;225;63004;-88
2024/04/26 02:02:15;;;;;;;0.60;0.60;;;;;;;3.25;71.15;95790.00;29395;221;63018;-89
2024/04/26 02:02:46;;;;;;;0.60;0.60;;;;;;;3.23;71.31;95787.59;29395;202;63004;-90
2024/04/26 02:03:17;;;;;;;0.55;0.55;;;;;;;3.22;71.37;95790.53;29394;238;64013;-88
2024/04/26 02:03:48;;;;;;;0.60;0.60;;;;;;;3.23;71.24;95792.94;29395;240;63004;-89
2024/04/26 02:04:20;;;;;;;0.60;0.60;;;;;;;3.22;71.32;95791.34;29395;320;63008;-89
2024/04/26 02:04:51;;;;;;;0.60;0.60;;;;;;;3.22;71.38;95795.91;29395;207;63004;-88
2024/04/26 02:05:22;;;;;;;0.60;0.60;;;;;;;3.20;71.40;95793.50;29395;240;63009;-90
2024/04/26 02:05:54;;;;;;;0.60;0.60;;;;;;;3.18;71.50;95789.47;29395;219;63005;-89
2024/04/26 02:06:25;;;;;;;0.60;0.60;;;;;;;3.17;71.45;95799.41;29395;233;63009;-88
2024/04/26 02:06:56;;;;;;;0.60;0.60;;;;;;;3.16;71.90;95792.44;29395;264;63005;-89
2024/04/26 02:07:28;;;;;;;0.50;0.50;;;;;;;3.17;71.78;95799.41;29395;312;63009;-88
2024/04/26 02:07:59;;;;;;;0.60;0.60;;;;;;;3.17;71.89;95799.41;29395;277;63005;-87
2024/04/26 02:08:30;;;;;;;0.60;0.60;;;;;;;3.18;72.07;95792.97;29394;290;64013;-88
2024/04/26 02:09:02;;;;;;;0.60;0.60;;;;;;;3.17;71.89;95799.41;29395;277;63004;-88
2024/04/26 02:09:33;;;;;;;0.60;0.60;;;;;;;3.20;72.28;95792.69;29395;206;63009;-89
2024/04/26 02:10:05;;;;;;;0.60;0.60;;;;;;;3.20;72.11;95793.50;29395;226;63004;-89
2024/04/26 02:10:37;;;;;;;0.60;0.60;;;;;;;3.21;72.35;95786.25;29395;281;63009;-88
2024/04/26 02:11:08;;;;;;;0.60;0.60;;;;;;;3.22;72.51;95794.03;29395;269;63004;-88
2024/04/26 02:11:39;;;;;;;0.60;0.60;;;;;;;3.22;72.50;95790.53;29395;277;63009;-90
2024/04/26 02:12:10;;;;;;;0.60;0.60;;;;;;;3.22;72.64;95785.19;29395;203;63005;-89
2024/04/26 02:12:41;;;;;;;0.60;0.60;;;;;;;3.23;72.52;95786.78;29395;214;63009;-90
2024/04/26 02:13:12;;;;;;;0.60;0.60;;;;;;;3.27;72.60;95783.28;29394;225;64002;-89
2024/04/26 02:13:44;;;;;;;0.60;0.60;;;;;;;3.28;72.71;95778.72;29394;203;64013;-90
2024/04/26 02:14:15;;;;;;;0.60;0.60;;;;;;;3.28;72.66;95774.16;29395;249;63005;-89
2024/04/26 02:14:46;;;;;;;2.03;1.85;;;;;;;3.27;72.51;95772.56;29395;202;63009;-88
2024/04/26 02:15:17;;;;;;;0.60;0.60;;;;;;;3.28;72.76;95771.50;29395;216;63005;-89
2024/04/26 02:15:48;;;;;;;0.60;0.60;;;;;;;3.31;72.33;95764.78;29395;234;63009;-87
2024/04/26 02:16:20;;;;;;;3.08;2.35;;;;;;;3.30;72.40;95763.97;29395;228;63004;-88
2024/04/26 02:16:55;;;;;;;0.60;0.60;;;;;;;3.29;72.19;95765.06;29395;226;63009;-87
2024/04/26 02:17:27;;;;;;;0.60;0.60;;;;;;;3.27;72.15;95756.47;29395;289;63014;-88
2024/04/26 02:17:58;;;;;;;0.60;0.60;;;;;;;3.25;72.47;95765.88;29394;236;64013;-89
2024/04/26 02:18:30;;;;;;;0.60;0.60;;;;;;;3.25;72.51;95764.00;29395;204;63004;-88
2024/04/26 02:19:01;;;;;;;0.80;0.80;;;;;;;3.22;72.29;95759.19;29395;219;63008;-88
2024/04/26 02:19:33;;;;;;;0.60;0.60;;;;;;;3.19;72.57;95765.06;29394;212;64009;-87
2024/04/26 02:20:06;;;;;;;0.60;0.60;;;;;;;3.17;72.75;95767.22;29395;223;63009;-88
2024/04/26 02:20:37;;;;;;;0.60;0.60;;;;;;;3.13;72.79;95770.72;29395;228;63015;-89
2024/04/26 02:21:08;;;;;;;0.60;0.60;;;;;;;3.09;72.81;95770.50;29395;226;63009;-89
2024/04/26 02:21:39;;;;;;;0.60;0.60;;;;;;;3.06;73.09;95776.41;29395;230;63005;-88
2024/04/26 02:22:10;;;;;;;0.60;0.60;;;;;;;3.05;73.37;95782.81;29395;231;63009;-89
2024/04/26 02:22:42;;;;;;;1.35;1.35;;;;;;;3.02;73.31;95776.13;29395;230;63005;-90
2024/04/26 02:23:13;;;;;;;0.60;0.60;;;;;;;3.01;73.44;95773.72;29394;238;64009;-89
2024/04/26 02:23:44;;;;;;;0.60;0.60;;;;;;;3.02;73.45;95775.31;29395;297;63004;-89
2024/04/26 02:24:21;;;;;;;0.60;0.60;;;;;;;3.02;73.37;95772.66;29394;230;64013;-89
2024/04/26 02:26:00;;;;;;;0.64;0.64;;;;;;;3.04;73.16;95762.47;88181;222;64004;-89
2024/04/26 02:26:31;;;;;;;0.60;0.60;;;;;;;3.06;72.76;95762.19;29394;234;64009;-87
2024/04/26 02:27:03;;;;;;;0.60;0.60;;;;;;;3.07;72.62;95767.28;29395;260;63005;-87
2024/04/26 02:27:34;;;;;;;0.60;0.60;;;;;;;3.10;72.99;95771.28;29394;244;64013;-88
2024/04/26 02:28:06;;;;;;;0.60;0.60;;;;;;;3.12;72.63;95764.56;29395;350;63005;-89
2024/04/26 02:28:38;;;;;;;0.60;0.60;;;;;;;3.09;72.82;95765.13;29395;259;63009;-87
2024/04/26 02:29:09;;;;;;;0.60;0.60;;;;;;;3.08;72.91;95768.88;29395;198;63009;-88
2024/04/26 02:29:40;;;;;;;0.60;0.60;;;;;;;3.07;73.18;95766.47;29394;227;64013;-87
2024/04/26 02:30:13;;;;;;;0.60;0.60;;;;;;;3.07;72.69;95764.59;29395;234;63004;-88
2024/04/26 02:30:45;;;;;;;0.60;0.60;;;;;;;3.07;72.96;95761.13;29395;383;63009;-87
2024/04/26 02:31:17;;;;;;;0.60;0.60;;;;;;;3.08;72.89;95758.16;29395;197;63004;-88
2024/04/26 02:31:48;;;;;;;0.70;0.70;;;;;;;3.07;72.65;95761.91;29395;345;63008;-87
2024/04/26 02:32:19;;;;;;;0.60;0.60;;;;;;;3.03;72.76;95767.03;29395;237;63005;-89
2024/04/26 02:32:50;;;;;;;0.60;0.60;;;;;;;3.00;73.00;95756.03;29395;197;63009;-88
2024/04/26 02:33:22;;;;;;;0.60;0.60;;;;;;;3.01;72.84;95760.31;29395;367;63005;-88
2024/04/26 02:33:53;;;;;;;0.60;0.60;;;;;;;2.99;73.17;95765.97;29395;240;63009;-88
2024/04/26 02:34:25;;;;;;;0.60;0.60;;;;;;;3.00;72.93;95766.75;29395;224;63010;-88
2024/04/26 02:34:56;;;;;;;0.60;0.60;;;;;;;3.00;72.78;95767.56;29394;216;64013;-88
2024/04/26 02:35:30;;;;;;;0.60;0.60;;;;;;;3.00;72.62;95761.41;29395;208;63014;-87